Decoded Metar for TNCM (PHILIPSBURG in ANTILLES) (IATA:SXM) | Meteo·Mobile Aviation Weather
aviador You're here:

TNCM Decoded Metar

PHILIPSBURG in ANTILLES
Report Time2019-02-16 00:00:00
UTC Time2019-02-16 00:53:10
Flight Rules vfr VFR
Wind130° at 10 kt
W.Decomp.*RWY 10: 7.2 kt HW 6.9 kt RCW
W.Rank130° ranks 7
Current wind is above 130° avg. (9.3)
Visibility9999 m
Phenomena:Haze
Clouds:Few 023 Hf
Broken 037 Hf
Expected CloudBase > 1,600 ft AGL from Temp-Dew spread
Ceiling3,700 ft
Temp26°C (ISA +11)
Dew Point22°C (79% RH)
QNH1016 hPa
Density Alt1,532 ft
Elevation13 ft
Report Wrong Elevation
Raw Report
TNCM 160000Z 13010KT 100V160 9999 FEW023 BKN037 26/22 Q1016 NOSIG
RMK A3002 LGT HZ ALSEC=

Extra information for TNCM:More info

Metar Taf Metar & Taf Last 4 Metars F.Rules Stats Wind Profile Meteogram Temp Stats Airport Information Weather charts Add Link Nearby VenuesMetar ALERT Operation Metar Decoded Social comments